createdAt,value
2023-05-14T00:01:04.185Z,81.6395
2023-05-14T00:02:12.333Z,81.8394
2023-05-14T00:03:20.506Z,81.7542
2023-05-14T00:04:28.275Z,81.9394
2023-05-14T00:05:36.323Z,81.9422
2023-05-14T00:06:44.457Z,82.2332
2023-05-14T00:07:52.611Z,82.3134
2023-05-14T00:09:00.629Z,82.3535
2023-05-14T00:10:08.724Z,82.5227
2023-05-14T00:11:16.771Z,82.9620
2023-05-14T00:12:24.841Z,82.7138
2023-05-14T00:13:33.108Z,82.6152
2023-05-14T00:14:41.098Z,82.4911
2023-05-14T00:15:49.067Z,82.8098
2023-05-14T00:16:57.226Z,82.8408
2023-05-14T00:18:05.340Z,82.8405
2023-05-14T00:19:13.136Z,83.0394
2023-05-14T00:20:21.322Z,83.1749
2023-05-14T00:21:29.217Z,83.4178
2023-05-14T00:22:37.414Z,83.7048
2023-05-14T00:23:45.647Z,83.6818
2023-05-14T00:24:53.544Z,82.9291
2023-05-14T00:26:01.569Z,82.9734
2023-05-14T00:27:09.662Z,82.9567
2023-05-14T00:28:17.779Z,83.6034
2023-05-14T00:29:25.883Z,84.5424
2023-05-14T00:30:33.961Z,84.4385
2023-05-14T00:31:41.913Z,84.1690
2023-05-14T00:32:50.025Z,83.6981
2023-05-14T00:33:57.879Z,83.3991
2023-05-14T00:35:05.984Z,82.8864
2023-05-14T00:36:14.005Z,83.1220
2023-05-14T00:37:22.188Z,83.6813
2023-05-14T00:38:30.233Z,83.7607
2023-05-14T00:39:38.447Z,83.9470
2023-05-14T00:40:46.426Z,83.9842
2023-05-14T00:41:54.445Z,84.3937
2023-05-14T00:43:02.511Z,84.7474
2023-05-14T00:44:10.524Z,84.8006
2023-05-14T00:45:18.616Z,84.9771
2023-05-14T00:46:26.850Z,85.4140
2023-05-14T00:47:34.981Z,84.7340
2023-05-14T00:48:42.656Z,84.8732
2023-05-14T00:49:50.759Z,84.9608
2023-05-14T00:50:58.779Z,85.0094
2023-05-14T00:52:07.014Z,85.4451
2023-05-14T00:53:15.016Z,85.6005
2023-05-14T00:54:23.096Z,85.6900
2023-05-14T00:55:31.260Z,85.4946
2023-05-14T00:56:39.305Z,85.5201
2023-05-14T00:57:47.300Z,85.6255
2023-05-14T00:58:55.302Z,85.6295
2023-05-14T01:00:03.429Z,85.1918
2023-05-14T01:01:11.600Z,84.3535
2023-05-14T01:02:19.553Z,84.4276
2023-05-14T01:03:27.632Z,84.7201
2023-05-14T01:04:35.494Z,85.0268
2023-05-14T01:05:43.571Z,84.9412
2023-05-14T01:06:51.740Z,84.5305
2023-05-14T01:07:59.921Z,84.5655
2023-05-14T01:09:07.952Z,84.3009
2023-05-14T01:10:15.942Z,83.8478
2023-05-14T01:11:24.136Z,84.0807
2023-05-14T01:12:32.068Z,84.1916
2023-05-14T01:13:40.108Z,84.3173
2023-05-14T01:14:48.235Z,84.1087
2023-05-14T01:15:56.217Z,83.7869
2023-05-14T01:17:04.321Z,83.9590
2023-05-14T01:18:12.368Z,83.2937
2023-05-14T01:19:20.269Z,83.3993
2023-05-14T01:20:28.384Z,83.1069
2023-05-14T01:21:36.518Z,83.2560
2023-05-14T01:22:44.595Z,83.4287
2023-05-14T01:23:52.722Z,83.1563
2023-05-14T01:25:00.721Z,83.4030
2023-05-14T01:26:08.835Z,83.2388
2023-05-14T01:27:16.863Z,83.0953
2023-05-14T01:28:24.891Z,83.6136
2023-05-14T01:29:32.968Z,83.7039
2023-05-14T01:30:41.026Z,84.0819
2023-05-14T01:31:49.162Z,83.8982
2023-05-14T01:32:57.085Z,84.0543
2023-05-14T01:34:05.057Z,83.6735
2023-05-14T01:35:13.185Z,83.6979
2023-05-14T01:36:21.445Z,83.5110
2023-05-14T01:37:29.581Z,83.6587
2023-05-14T01:38:37.508Z,83.8294
2023-05-14T01:39:45.473Z,83.6269
2023-05-14T01:40:53.553Z,84.0642
2023-05-14T01:42:01.684Z,84.0541
2023-05-14T01:43:09.750Z,83.9670
2023-05-14T01:44:17.753Z,84.2243
2023-05-14T01:45:25.846Z,83.4697
2023-05-14T01:46:34.042Z,83.3810
2023-05-14T01:47:41.805Z,84.0336
2023-05-14T01:48:49.859Z,84.2274
2023-05-14T01:49:57.920Z,83.8719
2023-05-14T01:51:06.098Z,83.7831
2023-05-14T01:52:14.247Z,83.9173
2023-05-14T01:53:22.205Z,83.9135
2023-05-14T01:54:30.316Z,83.2603
2023-05-14T01:55:38.307Z,83.5366
2023-05-14T01:56:46.387Z,83.7800
2023-05-14T01:57:54.436Z,83.5867
2023-05-14T01:59:02.654Z,84.0298
2023-05-14T02:00:10.678Z,84.2017
2023-05-14T02:01:18.710Z,83.5096
2023-05-14T02:02:26.591Z,83.3051
2023-05-14T02:03:34.651Z,83.5507
2023-05-14T02:04:42.709Z,83.6396
2023-05-14T02:05:50.944Z,83.2009
2023-05-14T02:06:58.940Z,82.5448
2023-05-14T02:08:07.125Z,83.1456
2023-05-14T02:09:15.072Z,83.4756
2023-05-14T02:10:23.274Z,83.2410
2023-05-14T02:11:31.239Z,83.4173
2023-05-14T02:12:39.238Z,83.3723
2023-05-14T02:13:47.330Z,83.5826
2023-05-14T02:14:55.425Z,83.3131
2023-05-14T02:16:03.658Z,83.1484
2023-05-14T02:17:11.400Z,83.1386
2023-05-14T02:18:19.401Z,83.8246
2023-05-14T02:19:27.514Z,83.5950
2023-05-14T02:20:35.700Z,83.9912
2023-05-14T02:21:43.731Z,83.5701
2023-05-14T02:22:51.840Z,83.3510
2023-05-14T02:23:59.984Z,83.5406
2023-05-14T02:25:07.922Z,83.3849
2023-05-14T02:26:15.995Z,83.1680
2023-05-14T02:27:24.062Z,83.3580
2023-05-14T02:28:32.155Z,83.5990
2023-05-14T02:29:40.232Z,84.1045
2023-05-14T02:30:48.235Z,84.1534
2023-05-14T02:31:56.213Z,84.4379
2023-05-14T02:33:04.341Z,84.9124
2023-05-14T02:34:12.361Z,84.9323
2023-05-14T02:35:20.465Z,84.5496
2023-05-14T02:36:28.515Z,84.2359
2023-05-14T02:37:36.613Z,85.0027
2023-05-14T02:38:44.674Z,84.6535
2023-05-14T02:39:52.876Z,84.2727
2023-05-14T02:41:00.763Z,84.3038
2023-05-14T02:42:08.860Z,84.2678
2023-05-14T02:43:16.893Z,83.9268
2023-05-14T02:44:24.948Z,83.8222
2023-05-14T02:45:33.038Z,83.5386
2023-05-14T02:46:40.958Z,83.4125
2023-05-14T02:47:49.036Z,83.6814
2023-05-14T02:48:57.024Z,83.6254
2023-05-14T02:50:05.217Z,83.8990
2023-05-14T02:51:13.388Z,84.0850
2023-05-14T02:52:21.370Z,84.2620
2023-05-14T02:53:29.410Z,83.9555
2023-05-14T02:54:37.513Z,83.8828
2023-05-14T02:55:45.661Z,83.6885
2023-05-14T02:56:53.707Z,83.2564
2023-05-14T02:58:01.639Z,83.4320
2023-05-14T02:59:09.676Z,83.7219
2023-05-14T03:00:17.640Z,83.7190
2023-05-14T03:01:25.779Z,83.9565
2023-05-14T03:02:33.907Z,84.8124
2023-05-14T03:03:41.957Z,85.1276
2023-05-14T03:04:50.216Z,84.8907
2023-05-14T03:05:58.071Z,84.6547
2023-05-14T03:07:06.136Z,84.5702
2023-05-14T03:08:14.229Z,84.3687
2023-05-14T03:09:22.308Z,83.9001
2023-05-14T03:10:30.292Z,83.9038
2023-05-14T03:11:38.485Z,83.9261
2023-05-14T03:12:46.487Z,83.9746
2023-05-14T03:13:54.521Z,83.9681
2023-05-14T03:15:02.415Z,84.3687
2023-05-14T03:16:10.460Z,84.2328
2023-05-14T03:17:18.543Z,84.2401
2023-05-14T03:18:26.751Z,83.9423
2023-05-14T03:19:34.841Z,84.1637
2023-05-14T03:20:42.691Z,84.5606
2023-05-14T03:21:50.849Z,84.4298
2023-05-14T03:22:58.954Z,84.1610
2023-05-14T03:24:06.998Z,84.0120
2023-05-14T03:25:15.083Z,84.1539
2023-05-14T03:26:23.105Z,84.0778
2023-05-14T03:27:31.120Z,84.4857
2023-05-14T03:28:39.191Z,84.6958
2023-05-14T03:29:47.110Z,84.7774
2023-05-14T03:30:55.258Z,84.9992
2023-05-14T03:32:03.259Z,85.1898
2023-05-14T03:33:11.671Z,85.1698
2023-05-14T03:34:19.473Z,85.2327
2023-05-14T03:35:27.551Z,85.2386
2023-05-14T03:36:35.721Z,85.7656
2023-05-14T03:37:43.663Z,85.3741
2023-05-14T03:38:51.731Z,85.0044
2023-05-14T03:39:59.741Z,85.0469
2023-05-14T03:41:07.814Z,84.9883
2023-05-14T03:42:15.951Z,85.4941
2023-05-14T03:43:23.921Z,85.7536
2023-05-14T03:44:31.861Z,85.6572
2023-05-14T03:45:39.895Z,86.0010
2023-05-14T03:46:47.975Z,86.4170
2023-05-14T03:47:56.403Z,86.4505
2023-05-14T03:49:04.360Z,86.3150
2023-05-14T03:50:12.293Z,86.6432
2023-05-14T03:51:20.399Z,86.9218
2023-05-14T03:52:28.637Z,86.9401
2023-05-14T03:53:36.481Z,86.9901
2023-05-14T03:54:44.538Z,87.0505
2023-05-14T03:55:52.545Z,86.9385
2023-05-14T03:57:00.854Z,86.6177
2023-05-14T03:58:08.729Z,86.3749
2023-05-14T03:59:16.655Z,86.3270
2023-05-14T04:00:24.885Z,86.0179
2023-05-14T04:01:32.721Z,85.7036
2023-05-14T04:02:41.101Z,85.7423
2023-05-14T04:03:49.160Z,85.8005
2023-05-14T04:04:57.089Z,86.0293
2023-05-14T04:06:05.294Z,86.4858
2023-05-14T04:07:13.110Z,86.3583
2023-05-14T04:08:21.151Z,86.0738
2023-05-14T04:09:29.232Z,86.0832
2023-05-14T04:10:37.309Z,85.6755
2023-05-14T04:11:45.475Z,85.4138
2023-05-14T04:12:53.497Z,85.8013
2023-05-14T04:14:01.425Z,85.5633
2023-05-14T04:15:09.499Z,85.3193
2023-05-14T04:16:17.657Z,85.4516
2023-05-14T04:17:25.904Z,84.7260
2023-05-14T04:18:33.985Z,83.9871
2023-05-14T04:19:41.857Z,84.4624
2023-05-14T04:20:49.915Z,84.5859
2023-05-14T04:21:57.881Z,84.6548
2023-05-14T04:23:06.022Z,84.7837
2023-05-14T04:24:14.138Z,85.3640
2023-05-14T04:25:22.270Z,85.5442
2023-05-14T04:26:30.194Z,85.3101
2023-05-14T04:27:38.333Z,84.8108
2023-05-14T04:28:46.208Z,84.9341
2023-05-14T04:29:54.248Z,85.2001
2023-05-14T04:31:02.338Z,84.9398
2023-05-14T04:32:10.498Z,84.7701
2023-05-14T04:33:18.596Z,85.0709
2023-05-14T04:34:26.834Z,84.6809
2023-05-14T04:35:34.672Z,84.6578
2023-05-14T04:36:42.830Z,84.5020
2023-05-14T04:37:50.769Z,84.5686
2023-05-14T04:38:58.966Z,84.7981
2023-05-14T04:40:06.947Z,84.8755
2023-05-14T04:41:14.967Z,84.7552
2023-05-14T04:42:23.119Z,84.6587
2023-05-14T04:43:30.961Z,83.6728
2023-05-14T04:44:39.045Z,83.1816
2023-05-14T04:45:47.067Z,83.1123
2023-05-14T04:46:55.290Z,83.7642
2023-05-14T04:48:03.343Z,83.6796
2023-05-14T04:49:11.445Z,83.2654
2023-05-14T04:50:19.582Z,83.2189
2023-05-14T04:51:27.494Z,82.6562
2023-05-14T04:52:35.558Z,82.3702
2023-05-14T04:53:43.622Z,83.1007
2023-05-14T04:54:51.695Z,82.8853
2023-05-14T04:55:59.803Z,82.2057
2023-05-14T04:57:07.783Z,82.2850
2023-05-14T04:58:15.722Z,83.0876
2023-05-14T04:59:23.772Z,82.9812
2023-05-14T05:00:31.853Z,82.9798
2023-05-14T05:01:40.160Z,83.0250
2023-05-14T05:02:48.106Z,82.8858
2023-05-14T05:03:56.261Z,83.1727
2023-05-14T05:05:04.277Z,83.3328
2023-05-14T05:06:12.546Z,82.7118
2023-05-14T05:07:20.447Z,82.6209
2023-05-14T05:08:28.375Z,82.5419
2023-05-14T05:09:36.449Z,82.8845
2023-05-14T05:10:44.569Z,82.9680
2023-05-14T05:11:52.556Z,82.6631
2023-05-14T05:13:00.576Z,82.4712
2023-05-14T05:14:08.569Z,82.5059
2023-05-14T05:15:16.611Z,81.7494
2023-05-14T05:16:24.857Z,81.8262
2023-05-14T05:17:32.925Z,81.6534
2023-05-14T05:18:41.092Z,81.3037
2023-05-14T05:19:48.979Z,82.3735
2023-05-14T05:20:57.140Z,82.5462
2023-05-14T05:22:05.257Z,82.1008
2023-05-14T05:23:13.048Z,81.4826
2023-05-14T05:24:21.308Z,81.8973
2023-05-14T05:25:29.505Z,82.3265
2023-05-14T05:26:37.332Z,81.8986
2023-05-14T05:27:45.313Z,82.2456
2023-05-14T05:28:53.292Z,82.1832
2023-05-14T05:30:01.439Z,81.3811
2023-05-14T05:31:09.558Z,80.9593
2023-05-14T05:32:17.633Z,80.9855
2023-05-14T05:33:25.685Z,81.1576
2023-05-14T05:34:33.720Z,81.2791
2023-05-14T05:35:41.940Z,81.0378
2023-05-14T05:36:49.864Z,80.5925
2023-05-14T05:38:00.528Z,81.2278
2023-05-14T05:39:10.932Z,81.2792
2023-05-14T05:40:18.948Z,81.0826
2023-05-14T05:41:26.890Z,80.1061
2023-05-14T05:42:34.874Z,79.9448
2023-05-14T05:43:42.944Z,79.9177
2023-05-14T05:44:51.134Z,80.0076
2023-05-14T05:45:59.158Z,80.2109
2023-05-14T05:47:07.451Z,80.3784
2023-05-14T05:48:15.312Z,80.2256
2023-05-14T05:49:23.477Z,81.8401
2023-05-14T05:50:31.389Z,80.9409
2023-05-14T05:51:39.471Z,80.0426
2023-05-14T05:52:47.573Z,79.4378
2023-05-14T05:53:55.604Z,79.9343
2023-05-14T05:55:03.790Z,79.9810
2023-05-14T05:56:11.566Z,79.9893
2023-05-14T05:57:19.638Z,79.5413
2023-05-14T05:58:27.768Z,79.1997
2023-05-14T05:59:35.871Z,80.0394
2023-05-14T06:00:44.022Z,79.3277
2023-05-14T06:01:52.086Z,78.7495
2023-05-14T06:03:00.312Z,79.0244
2023-05-14T06:04:08.170Z,79.1801
2023-05-14T06:05:16.303Z,80.0134
2023-05-14T06:06:24.224Z,80.2509
2023-05-14T06:07:32.299Z,80.9990
2023-05-14T06:08:40.396Z,80.6779
2023-05-14T06:09:48.456Z,79.9953
2023-05-14T06:10:56.362Z,79.8634
2023-05-14T06:12:04.378Z,80.2032
2023-05-14T06:13:12.432Z,80.7193
2023-05-14T06:14:20.626Z,80.4646
2023-05-14T06:15:28.801Z,80.1919
2023-05-14T06:16:36.766Z,81.4625
2023-05-14T06:17:44.836Z,81.4515
2023-05-14T06:18:53.047Z,80.7339
2023-05-14T06:20:00.925Z,80.1882
2023-05-14T06:21:09.013Z,80.1195
2023-05-14T06:22:17.036Z,79.9047
2023-05-14T06:23:25.091Z,79.8490
2023-05-14T06:24:33.045Z,79.4826
2023-05-14T06:25:41.083Z,79.9649
2023-05-14T06:26:49.183Z,80.8337
2023-05-14T06:27:57.176Z,80.6486
2023-05-14T06:29:05.386Z,80.9691
2023-05-14T06:30:13.401Z,80.9820
2023-05-14T06:31:21.544Z,81.4745
2023-05-14T06:32:29.609Z,82.2865
2023-05-14T06:33:37.662Z,82.6410
2023-05-14T06:34:45.784Z,81.6214
2023-05-14T06:35:53.937Z,82.1696
2023-05-14T06:37:01.830Z,82.0523
2023-05-14T06:38:10.000Z,81.2835
2023-05-14T06:39:17.908Z,81.6759
2023-05-14T06:40:25.966Z,81.7191
2023-05-14T06:41:33.874Z,81.3747
2023-05-14T06:42:41.949Z,81.0496
2023-05-14T06:43:50.164Z,81.5632
2023-05-14T06:44:58.230Z,81.3049
2023-05-14T06:46:06.270Z,81.3233
2023-05-14T06:47:14.356Z,81.1911
2023-05-14T06:48:22.428Z,81.7030
2023-05-14T06:49:30.467Z,82.0283
2023-05-14T06:50:38.619Z,81.6056
2023-05-14T06:51:46.565Z,80.9790
2023-05-14T06:52:54.609Z,81.6528
2023-05-14T06:54:02.694Z,81.8549
2023-05-14T06:55:10.632Z,82.6606
2023-05-14T06:56:18.655Z,82.0360
2023-05-14T06:57:26.721Z,81.6364
2023-05-14T06:58:34.959Z,81.1057
2023-05-14T06:59:42.982Z,81.8924
2023-05-14T07:00:51.071Z,81.6820
2023-05-14T07:01:59.161Z,81.6022
2023-05-14T07:03:07.213Z,82.5700
2023-05-14T07:04:15.267Z,82.8150
2023-05-14T07:05:23.220Z,83.4308
2023-05-14T07:06:31.392Z,83.5490
2023-05-14T07:07:39.517Z,83.1884
2023-05-14T07:08:47.389Z,83.8790
2023-05-14T07:09:55.380Z,83.3657
2023-05-14T07:11:03.445Z,83.4511
2023-05-14T07:12:11.563Z,83.9110
2023-05-14T07:13:19.688Z,84.5504
2023-05-14T07:14:27.692Z,83.7511
2023-05-14T07:15:35.769Z,83.8895
2023-05-14T07:16:43.882Z,84.1396
2023-05-14T07:17:51.994Z,84.5052
2023-05-14T07:18:59.976Z,84.8959
2023-05-14T07:20:08.046Z,84.9084
2023-05-14T07:21:16.066Z,84.8857
2023-05-14T07:22:24.131Z,85.3046
2023-05-14T07:23:32.196Z,85.4316
2023-05-14T07:24:40.151Z,85.6849
2023-05-14T07:25:48.206Z,85.5972
2023-05-14T07:26:56.285Z,85.5525
2023-05-14T07:28:04.429Z,85.3953
2023-05-14T07:29:12.522Z,85.1061
2023-05-14T07:30:20.541Z,85.0696
2023-05-14T07:31:28.673Z,85.1025
2023-05-14T07:32:36.657Z,84.3607
2023-05-14T07:33:44.666Z,84.4881
2023-05-14T07:34:52.858Z,83.8263
2023-05-14T07:36:00.804Z,83.0670
2023-05-14T07:37:08.883Z,83.0783
2023-05-14T07:38:17.020Z,83.2695
2023-05-14T07:39:24.955Z,82.9313
2023-05-14T07:40:33.121Z,83.2474
2023-05-14T07:41:41.027Z,82.2345
2023-05-14T07:42:49.200Z,81.5378
2023-05-14T07:43:57.618Z,80.8629
2023-05-14T07:45:05.381Z,81.5157
2023-05-14T07:46:13.440Z,82.0925
2023-05-14T07:47:21.443Z,81.1892
2023-05-14T07:48:29.520Z,80.8534
2023-05-14T07:49:37.554Z,80.7412
2023-05-14T07:50:45.630Z,79.6785
2023-05-14T07:51:53.709Z,79.4395
2023-05-14T07:53:01.770Z,79.7324
2023-05-14T07:54:09.680Z,79.0708
2023-05-14T07:55:17.728Z,77.4318
2023-05-14T07:56:25.788Z,77.6927
2023-05-14T07:57:34.178Z,76.6027
2023-05-14T07:58:41.973Z,76.4535
2023-05-14T07:59:50.154Z,75.5343
2023-05-14T08:00:58.099Z,76.3191
2023-05-14T08:02:06.185Z,76.9863
2023-05-14T08:03:14.415Z,76.9291
2023-05-14T08:04:22.414Z,76.3948
2023-05-14T08:05:30.337Z,75.7248
2023-05-14T08:06:38.498Z,75.5917
2023-05-14T08:07:46.501Z,75.8615
2023-05-14T08:08:54.452Z,76.0816
2023-05-14T08:10:02.478Z,75.9767
2023-05-14T08:11:10.610Z,75.5880
2023-05-14T08:12:18.702Z,75.5795
2023-05-14T08:13:26.917Z,75.0105
2023-05-14T08:14:34.863Z,74.0904
2023-05-14T08:15:42.968Z,73.4867
2023-05-14T08:16:51.040Z,73.8924
2023-05-14T08:17:59.017Z,74.3829
2023-05-14T08:19:07.107Z,75.3834
2023-05-14T08:20:15.343Z,75.7294
2023-05-14T08:21:23.257Z,75.5313
2023-05-14T08:22:31.341Z,75.9415
2023-05-14T08:23:39.260Z,75.5645
2023-05-14T08:24:47.314Z,75.7130
2023-05-14T08:25:55.406Z,75.9009
2023-05-14T08:27:03.412Z,76.3322
2023-05-14T08:28:11.623Z,75.9457
2023-05-14T08:29:19.656Z,75.7783
2023-05-14T08:30:27.891Z,76.8453
2023-05-14T08:31:35.821Z,76.6485
2023-05-14T08:32:43.868Z,75.1941
2023-05-14T08:33:51.890Z,74.5201
2023-05-14T08:34:59.957Z,75.3175
2023-05-14T08:36:08.072Z,74.0323
2023-05-14T08:37:16.139Z,74.2523
2023-05-14T08:38:23.984Z,73.2853
2023-05-14T08:39:32.080Z,73.5608
2023-05-14T08:40:40.107Z,73.6381
2023-05-14T08:41:48.298Z,73.2892
2023-05-14T08:42:56.456Z,72.3695
2023-05-14T08:44:04.413Z,73.1343
2023-05-14T08:45:12.476Z,73.7466
2023-05-14T08:46:20.550Z,73.4116
2023-05-14T08:47:28.626Z,73.5622
2023-05-14T08:48:36.728Z,74.0639
2023-05-14T08:49:44.705Z,73.9628
2023-05-14T08:50:52.733Z,72.5354
2023-05-14T08:52:00.813Z,71.7458
2023-05-14T08:53:08.753Z,71.5546
2023-05-14T08:54:16.846Z,70.3988
2023-05-14T08:55:24.836Z,70.3270
2023-05-14T08:56:33.070Z,69.9100
2023-05-14T08:57:41.106Z,70.6890
2023-05-14T08:58:49.132Z,70.2029
2023-05-14T08:59:57.272Z,69.0162
2023-05-14T09:01:05.224Z,68.3140
2023-05-14T09:02:13.347Z,68.1780
2023-05-14T09:03:21.423Z,68.1097
2023-05-14T09:04:29.414Z,68.3056
2023-05-14T09:05:37.553Z,68.3171
2023-05-14T09:06:45.497Z,66.3096
2023-05-14T09:07:53.480Z,66.4910
2023-05-14T09:09:01.547Z,67.2592
2023-05-14T09:10:09.564Z,68.2167
2023-05-14T09:11:17.980Z,69.3638
2023-05-14T09:12:25.766Z,69.7359
2023-05-14T09:13:33.827Z,69.4138
2023-05-14T09:14:41.956Z,69.1589
2023-05-14T09:15:49.997Z,70.6011
2023-05-14T09:16:58.061Z,69.1304
2023-05-14T09:18:06.303Z,69.2008
2023-05-14T09:19:14.198Z,68.9088
2023-05-14T09:20:22.718Z,68.5474
2023-05-14T09:21:32.178Z,69.1058
2023-05-14T09:22:43.104Z,67.7178
2023-05-14T09:23:51.274Z,65.7873
2023-05-14T09:24:59.276Z,65.8127
2023-05-14T09:26:07.534Z,66.1048
2023-05-14T09:27:15.410Z,65.5998
2023-05-14T09:28:23.420Z,65.1175
2023-05-14T09:29:31.527Z,67.1800
2023-05-14T09:30:39.618Z,67.1887
2023-05-14T09:31:47.694Z,66.9371
2023-05-14T09:32:55.813Z,68.1497
2023-05-14T09:34:03.826Z,67.2110
2023-05-14T09:35:11.757Z,67.9500
2023-05-14T09:36:19.824Z,67.7707
2023-05-14T09:37:27.855Z,68.0575
2023-05-14T09:38:35.980Z,69.5493
2023-05-14T09:39:44.094Z,69.6621
2023-05-14T09:40:52.189Z,69.2192
2023-05-14T09:42:00.200Z,69.1342
2023-05-14T09:43:08.264Z,68.6959
2023-05-14T09:44:16.343Z,67.8406
2023-05-14T09:45:24.451Z,67.8426
2023-05-14T09:46:32.415Z,67.2299
2023-05-14T09:47:40.564Z,67.9193
2023-05-14T09:48:48.506Z,67.4324
2023-05-14T09:49:56.517Z,65.8970
2023-05-14T09:51:04.910Z,65.2588
2023-05-14T09:52:12.638Z,65.3261
2023-05-14T09:53:20.846Z,65.2001
2023-05-14T09:54:28.877Z,66.0682
2023-05-14T09:55:36.911Z,65.8489
2023-05-14T09:56:45.007Z,64.4441
2023-05-14T09:57:53.040Z,65.2961
2023-05-14T09:59:01.132Z,67.6571
2023-05-14T10:00:09.056Z,66.1157
2023-05-14T10:01:17.254Z,67.4576
2023-05-14T10:02:25.553Z,66.9940
2023-05-14T10:03:33.253Z,66.3772
2023-05-14T10:04:41.310Z,66.4022
2023-05-14T10:05:49.367Z,67.4609
2023-05-14T10:06:57.559Z,69.4050
2023-05-14T10:08:05.601Z,69.7092
2023-05-14T10:09:13.673Z,69.9477
2023-05-14T10:10:21.959Z,71.3181
2023-05-14T10:11:29.804Z,70.9915
2023-05-14T10:12:37.857Z,71.5425
2023-05-14T10:13:46.082Z,71.5984
2023-05-14T10:14:53.977Z,72.3832
2023-05-14T10:16:02.045Z,71.5409
2023-05-14T10:17:10.246Z,70.4656
2023-05-14T10:18:18.149Z,71.4583
2023-05-14T10:19:26.225Z,71.1426
2023-05-14T10:20:34.103Z,69.2893
2023-05-14T10:21:42.315Z,69.4924
2023-05-14T10:22:50.360Z,69.3538
2023-05-14T10:23:58.493Z,67.9570
2023-05-14T10:25:06.526Z,68.5604
2023-05-14T10:26:14.560Z,69.5396
2023-05-14T10:27:22.645Z,68.8939
2023-05-14T10:28:30.687Z,66.9189
2023-05-14T10:29:38.826Z,68.0095
2023-05-14T10:30:46.850Z,68.1734
2023-05-14T10:31:54.820Z,66.7791
2023-05-14T10:33:02.792Z,66.7943
2023-05-14T10:34:10.839Z,67.1262
2023-05-14T10:35:18.914Z,66.4005
2023-05-14T10:36:27.104Z,66.0759
2023-05-14T10:37:35.150Z,67.3987
2023-05-14T10:38:43.331Z,69.2877
2023-05-14T10:39:51.259Z,67.8665
2023-05-14T10:40:59.302Z,66.6128
2023-05-14T10:42:07.496Z,66.0510
2023-05-14T10:43:15.420Z,65.3969
2023-05-14T10:44:23.688Z,66.0846
2023-05-14T10:45:31.569Z,66.1304
2023-05-14T10:46:39.718Z,64.7678
2023-05-14T10:47:47.619Z,64.4040
2023-05-14T10:48:55.582Z,64.8467
2023-05-14T10:50:03.656Z,65.2810
2023-05-14T10:51:11.938Z,64.6481
2023-05-14T10:52:19.912Z,65.3820
2023-05-14T10:53:28.039Z,64.9501
2023-05-14T10:54:36.164Z,64.1105
2023-05-14T10:55:44.067Z,64.5373
2023-05-14T10:56:52.136Z,61.8851
2023-05-14T10:58:00.223Z,62.2617
2023-05-14T10:59:08.276Z,61.5076
2023-05-14T11:00:16.317Z,61.0689
2023-05-14T11:01:24.433Z,58.2233
2023-05-14T11:02:32.334Z,57.6214
2023-05-14T11:03:40.395Z,56.8693
2023-05-14T11:04:48.473Z,55.9527
2023-05-14T11:05:56.826Z,55.7866
2023-05-14T11:07:04.701Z,53.7889
2023-05-14T11:08:12.763Z,52.2800
2023-05-14T11:09:20.796Z,52.3032
2023-05-14T11:10:28.987Z,51.1948
2023-05-14T11:11:36.928Z,51.0257
2023-05-14T11:12:44.977Z,53.4327
2023-05-14T11:13:52.989Z,52.8369
2023-05-14T11:15:01.083Z,52.0998
2023-05-14T11:16:21.977Z,51.9040
2023-05-14T11:17:21.941Z,51.7114
2023-05-14T11:18:30.067Z,50.1799
2023-05-14T11:19:38.066Z,51.5082
2023-05-14T11:20:46.240Z,52.1708
2023-05-14T11:21:54.361Z,54.6463
2023-05-14T11:23:02.373Z,57.2490
2023-05-14T11:24:10.416Z,58.5223
2023-05-14T11:25:18.455Z,60.8308
2023-05-14T11:26:26.685Z,61.2999
2023-05-14T11:27:34.666Z,63.1642
2023-05-14T11:28:42.629Z,63.7761
2023-05-14T11:29:50.802Z,63.0428
2023-05-14T11:30:58.763Z,64.5500
2023-05-14T11:32:06.759Z,65.6433
2023-05-14T11:33:14.880Z,65.4095
2023-05-14T11:34:22.850Z,65.6702
2023-05-14T11:35:31.024Z,65.9600
2023-05-14T11:36:39.045Z,65.8507
2023-05-14T11:37:47.098Z,67.1350
2023-05-14T11:38:55.223Z,67.4574
2023-05-14T11:40:03.345Z,67.5526
2023-05-14T11:41:11.288Z,67.0178
2023-05-14T11:42:19.532Z,67.7326
2023-05-14T11:43:27.439Z,68.1249
2023-05-14T11:44:35.498Z,69.1602
2023-05-14T11:45:43.536Z,69.0353
2023-05-14T11:46:51.429Z,67.7495
2023-05-14T11:47:59.508Z,67.8194
2023-05-14T11:49:07.553Z,68.1359
2023-05-14T11:50:15.857Z,67.9480
2023-05-14T11:51:23.807Z,68.0630
2023-05-14T11:52:31.854Z,68.1599
2023-05-14T11:53:39.894Z,67.6011
2023-05-14T11:54:47.980Z,66.5460
2023-05-14T11:55:56.135Z,65.1443
2023-05-14T11:57:04.095Z,65.3351
2023-05-14T11:58:12.184Z,67.1393
2023-05-14T11:59:20.363Z,66.3038
2023-05-14T12:00:28.273Z,67.5756
2023-05-14T12:01:36.235Z,69.1150
2023-05-14T12:02:44.302Z,67.8674
2023-05-14T12:03:52.478Z,65.6525
2023-05-14T12:05:00.553Z,65.6304
2023-05-14T12:06:08.589Z,64.0795
2023-05-14T12:07:16.731Z,65.0866
2023-05-14T12:08:24.655Z,65.6292
2023-05-14T12:09:32.696Z,66.3095
2023-05-14T12:10:40.770Z,65.6332
2023-05-14T12:11:48.806Z,67.2094
2023-05-14T12:12:56.916Z,67.9553
2023-05-14T12:14:05.164Z,68.4756
2023-05-14T12:15:13.015Z,68.0012
2023-05-14T12:16:21.005Z,68.1526
2023-05-14T12:17:29.083Z,68.6541
2023-05-14T12:18:37.241Z,68.8496
2023-05-14T12:19:45.275Z,69.6846
2023-05-14T12:20:53.297Z,70.2564
2023-05-14T12:22:01.388Z,71.8896
2023-05-14T12:23:09.602Z,72.1758
2023-05-14T12:24:17.684Z,72.5355
2023-05-14T12:25:25.634Z,72.2594
2023-05-14T12:26:33.799Z,72.9693
2023-05-14T12:27:41.721Z,74.9312
2023-05-14T12:28:49.768Z,75.9073
2023-05-14T12:30:01.985Z,76.0118
2023-05-14T12:31:10.706Z,76.5448
2023-05-14T12:32:18.765Z,76.8491
2023-05-14T12:33:26.816Z,77.1335
2023-05-14T12:34:37.227Z,77.7594
2023-05-14T12:35:47.932Z,77.4920
2023-05-14T12:36:55.957Z,78.3441
2023-05-14T12:38:04.046Z,78.0221
2023-05-14T12:39:12.070Z,78.6122
2023-05-14T12:40:20.273Z,79.9860
2023-05-14T12:41:28.445Z,80.9225
2023-05-14T12:42:36.298Z,80.4706
2023-05-14T12:43:44.421Z,81.4856
2023-05-14T12:44:52.296Z,82.0658
2023-05-14T12:46:00.329Z,82.3317
2023-05-14T12:47:08.521Z,82.6410
2023-05-14T12:48:16.590Z,82.9816
2023-05-14T12:49:24.642Z,82.3769
2023-05-14T12:50:32.805Z,82.9170
2023-05-14T12:51:40.855Z,83.5947
2023-05-14T12:52:48.857Z,83.2851
2023-05-14T12:53:56.968Z,83.9371
2023-05-14T12:55:05.058Z,83.3451
2023-05-14T12:56:13.042Z,82.0021
2023-05-14T12:57:21.105Z,82.3084
2023-05-14T12:58:29.370Z,82.8836
2023-05-14T12:59:37.122Z,82.6436
2023-05-14T13:00:45.187Z,80.9596
2023-05-14T13:01:53.220Z,81.7866
2023-05-14T13:03:01.444Z,82.2812
2023-05-14T13:04:09.539Z,81.1213
2023-05-14T13:05:17.585Z,79.8440
2023-05-14T13:06:25.706Z,80.6588
2023-05-14T13:07:33.649Z,82.1045
2023-05-14T13:08:42.739Z,82.5638
2023-05-14T13:09:49.902Z,80.9525
2023-05-14T13:10:57.839Z,81.3629
2023-05-14T13:12:05.898Z,82.8779
2023-05-14T13:13:13.988Z,83.0242
2023-05-14T13:14:21.905Z,83.2625
2023-05-14T13:15:30.012Z,82.7589
2023-05-14T13:16:38.062Z,83.0991
2023-05-14T13:17:46.252Z,82.9966
2023-05-14T13:18:54.302Z,81.8894
2023-05-14T13:20:02.318Z,81.7206
2023-05-14T13:21:10.523Z,81.7741
2023-05-14T13:22:18.579Z,81.1090
2023-05-14T13:23:26.541Z,80.9300
2023-05-14T13:24:34.599Z,80.9144
2023-05-14T13:25:42.663Z,80.6343
2023-05-14T13:26:50.745Z,81.0417
2023-05-14T13:27:58.785Z,81.1475
2023-05-14T13:29:06.712Z,80.0134
2023-05-14T13:30:14.805Z,78.7296
2023-05-14T13:31:22.962Z,76.7763
2023-05-14T13:32:31.032Z,75.2838
2023-05-14T13:33:39.085Z,78.1110
2023-05-14T13:34:47.126Z,78.4292
2023-05-14T13:35:55.238Z,77.2584
2023-05-14T13:37:03.285Z,74.7766
2023-05-14T13:38:11.562Z,73.8898
2023-05-14T13:39:19.450Z,75.3923
2023-05-14T13:40:27.459Z,75.0472
2023-05-14T13:41:35.541Z,74.6767
2023-05-14T13:42:43.618Z,74.6352
2023-05-14T13:43:51.567Z,75.4044